< < Back
Terminal Aerodrome Forecast


Current Version              Previous Versions:   1  2  3  4  5  6  7  8  9  

Terminal Aerodrome Forecast

885
FTUS42 KILM 240500
TAFFLO
TAF
KFLO 240520Z 2406/2506 VRB03KT P6SM BKN250
     FM250000 00000KT P6SM SCT200=



Latest METAR

801
SAUS70 KWBC 240900 RRA
MTRFLO
METAR KFLO 240853Z AUTO 33004KT 10SM CLR 09/06 A3002 RMK AO2 SLP165
T00940061 55002


USA.gov is the U.S. government's official web portal to all federal, state and local government web resources and services.